Terminal Aerodrome Forecast
Issued by NWS

Home | Current Version | Previous Version | Text Only | Print | Product List | Glossary On
Versions: 1 2 3 4 5 6 7 8 9 10 11 12 13 14 15 16 17 18 19 20 21 22 23 24 25 26 27
000
FTAK31 PANC 220530
TAFAVD
TAF
PAVD 220530Z 2206/2306 VRB04KT 6SM -SHSN OVC045
      TEMPO 2206/2210 2SM -SHSN BKN012 BKN025
     FM221000 VRB03KT 5SM -SHSN BKN025
      AMD LTD TO CLD VIS AND WIND=

USA.gov is the U.S. government's official web portal to all federal, state and local government web resources and services.